Time;durP1;ratioP1;P1;durP2;ratioP2;P2;SDS_P1;SDS_P2;PMS_P1;PMS_P2;Temp;Humidity;BMP_temperature;BMP_pressure;BME280_temperature;BME280_humidity;BME280_pressure;Samples;Min_cycle;Max_cycle;Signal;HPM_P1;HPM_P2
2023/05/09 00:01:57;;;;;;;32.22;17.73;;;;;;;19.14;64.52;101851.94;4961895;28;20041;-45
2023/05/09 00:04:23;;;;;;;32.42;17.58;;;;;;;19.13;64.76;101850.19;4965111;28;20498;-45
2023/05/09 00:06:48;;;;;;;30.35;17.05;;;;;;;19.25;64.54;101849.22;4961238;28;20039;-47
2023/05/09 00:09:13;;;;;;;29.63;16.50;;;;;;;19.28;64.42;101847.44;4964567;28;20030;-49
2023/05/09 00:11:39;;;;;;;27.88;16.27;;;;;;;19.25;64.38;101844.81;4960614;28;20405;-49
2023/05/09 00:14:06;;;;;;;28.95;16.42;;;;;;;19.35;64.12;101842.97;4964619;28;20038;-47
2023/05/09 00:16:32;;;;;;;28.50;15.95;;;;;;;19.35;64.04;101835.03;4964710;28;20062;-47
2023/05/09 00:18:58;;;;;;;27.08;16.00;;;;;;;19.41;63.93;101832.34;4961229;28;20049;-50
2023/05/09 00:21:23;;;;;;;27.63;15.43;;;;;;;19.43;63.80;101844.69;4964346;28;20031;-49
2023/05/09 00:23:48;;;;;;;27.95;15.82;;;;;;;19.41;63.74;101838.53;4961105;28;20421;-46
2023/05/09 00:26:14;;;;;;;28.52;15.73;;;;;;;19.23;63.79;101825.44;4964177;28;20386;-47
2023/05/09 00:28:40;;;;;;;23.73;14.88;;;;;;;19.40;63.54;101836.75;4960620;28;20090;-49
2023/05/09 00:31:05;;;;;;;25.38;15.02;;;;;;;19.59;62.84;101826.94;4964557;28;20513;-43
2023/05/09 00:33:30;;;;;;;26.23;14.95;;;;;;;19.66;62.45;101822.47;4963438;28;20031;-45
2023/05/09 00:35:56;;;;;;;24.90;15.20;;;;;;;19.57;62.46;101820.81;4960951;28;20067;-49
2023/05/09 00:38:22;;;;;;;23.02;14.90;;;;;;;19.65;62.21;101813.66;4964107;28;20517;-48
2023/05/09 00:40:47;;;;;;;27.70;13.65;;;;;;;19.75;62.03;101811.81;4960352;28;20050;-46
2023/05/09 00:43:13;;;;;;;23.75;14.32;;;;;;;19.64;62.18;101803.13;4963760;28;20027;-45
2023/05/09 00:45:38;;;;;;;25.60;14.60;;;;;;;19.69;61.78;101802.19;4960797;28;20043;-49
2023/05/09 00:48:04;;;;;;;24.63;14.73;;;;;;;19.50;62.55;101797.06;4963740;28;20286;-47
2023/05/09 00:50:30;;;;;;;24.75;14.60;;;;;;;19.42;62.71;101792.69;4963382;28;20055;-46
2023/05/09 00:52:56;;;;;;;25.80;14.52;;;;;;;19.43;62.69;101794.44;4960304;28;20585;-47
2023/05/09 00:55:22;;;;;;;25.83;14.27;;;;;;;19.40;62.69;101789.16;4963796;28;20085;-43
2023/05/09 00:57:47;;;;;;;25.35;15.43;;;;;;;19.30;62.81;101784.84;4960439;28;20046;-51
2023/05/09 01:00:13;;;;;;;24.13;14.73;;;;;;;19.31;62.83;101786.59;4963189;28;20055;-46
2023/05/09 01:02:40;;;;;;;28.73;15.88;;;;;;;19.47;62.09;101781.19;4960916;28;20050;-46
2023/05/09 01:05:06;;;;;;;25.08;14.65;;;;;;;19.64;61.71;101780.16;4963703;28;20035;-47
2023/05/09 01:07:37;;;;;;;24.20;14.57;;;;;;;19.49;62.25;101769.72;4963839;28;20045;-46
2023/05/09 01:10:14;;;;;;;24.17;14.10;;;;;;;19.41;62.56;101761.81;4960736;28;20030;-48
2023/05/09 01:12:53;;;;;;;24.50;15.05;;;;;;;19.45;62.57;101760.06;4959870;28;20596;-44
2023/05/09 01:15:35;;;;;;;22.88;14.13;;;;;;;19.45;62.76;101749.47;4963723;28;20077;-49
2023/05/09 01:18:16;;;;;;;23.98;14.52;;;;;;;19.23;63.10;101753.16;4960631;28;20039;-45
2023/05/09 01:20:44;;;;;;;25.08;14.63;;;;;;;19.32;62.90;101753.13;4959596;28;20038;-46
2023/05/09 01:23:43;;;;;;;23.70;14.23;;;;;;;19.31;62.84;101746.06;4963079;28;20035;-46
2023/05/09 01:26:17;;;;;;;23.23;13.40;;;;;;;19.39;62.75;101749.53;4961803;28;20066;-44
2023/05/09 01:29:05;;;;;;;22.15;13.02;;;;;;;19.37;62.95;101743.38;4959336;28;20031;-44
2023/05/09 01:31:33;;;;;;;21.80;13.80;;;;;;;19.33;63.03;101734.56;4962890;28;20398;-46
2023/05/09 01:34:01;;;;;;;20.50;12.50;;;;;;;19.59;62.19;101731.72;4959843;28;20441;-44
2023/05/09 01:36:29;;;;;;;21.17;12.93;;;;;;;19.51;62.01;101736.22;4963085;28;20034;-44
2023/05/09 01:38:57;;;;;;;23.08;13.30;;;;;;;19.31;63.15;101723.16;4959588;28;20113;-46
2023/05/09 01:41:24;;;;;;;22.20;12.52;;;;;;;19.55;62.53;101731.78;4962702;28;20037;-45
2023/05/09 01:43:52;;;;;;;23.15;12.52;;;;;;;19.04;63.71;101724.25;4959655;28;20035;-44
2023/05/09 01:46:20;;;;;;;19.48;12.02;;;;;;;19.12;63.68;101720.66;4963427;28;20165;-49
2023/05/09 01:48:48;;;;;;;18.23;11.75;;;;;;;19.18;63.36;101721.50;4959950;28;20035;-46
2023/05/09 01:51:15;;;;;;;18.85;11.63;;;;;;;19.42;62.67;101713.34;4963251;28;20027;-50
2023/05/09 01:53:42;;;;;;;19.45;11.20;;;;;;;19.54;62.06;101703.56;4961630;28;20039;-43
2023/05/09 01:56:08;;;;;;;18.23;11.55;;;;;;;19.55;61.91;101708.84;4963696;28;20057;-48
2023/05/09 01:58:35;;;;;;;18.63;11.10;;;;;;;19.60;61.64;101706.13;4962948;28;20027;-47
2023/05/09 02:01:01;;;;;;;19.58;11.40;;;;;;;19.31;62.59;101701.13;4959393;28;20031;-44
2023/05/09 02:03:27;;;;;;;21.77;11.43;;;;;;;19.24;62.82;101702.94;4963038;28;20045;-48
2023/05/09 02:05:55;;;;;;;19.50;11.52;;;;;;;19.15;63.18;101691.59;4959615;28;20605;-46
2023/05/09 02:08:21;;;;;;;18.25;10.80;;;;;;;19.30;62.68;101692.31;4962572;28;20031;-49
2023/05/09 02:10:48;;;;;;;17.38;10.50;;;;;;;19.16;62.77;101691.53;4959142;28;20090;-46
2023/05/09 02:13:13;;;;;;;20.23;11.68;;;;;;;19.18;62.73;101686.25;4962605;28;20058;-45
2023/05/09 02:15:39;;;;;;;17.85;10.90;;;;;;;19.15;63.00;101681.84;4959727;28;20063;-51
2023/05/09 02:18:04;;;;;;;18.65;11.07;;;;;;;19.08;63.08;101681.94;4962808;28;20110;-48
2023/05/09 02:20:30;;;;;;;18.55;10.80;;;;;;;19.14;62.97;101685.41;4962207;28;20141;-46
2023/05/09 02:22:55;;;;;;;17.15;10.63;;;;;;;19.14;62.86;101682.78;4959394;28;20100;-48
2023/05/09 02:25:21;;;;;;;15.95;9.98;;;;;;;19.19;62.68;101683.59;4962637;28;20035;-44
2023/05/09 02:27:46;;;;;;;18.15;10.82;;;;;;;19.12;63.00;101675.72;4959688;28;20097;-44
2023/05/09 02:30:17;;;;;;;17.88;10.48;;;;;;;19.16;63.20;101673.03;4962560;28;20505;-49
2023/05/09 02:32:46;;;;;;;19.80;10.82;;;;;;;19.21;62.61;101670.38;4959351;28;20031;-44
2023/05/09 02:35:13;;;;;;;19.08;10.85;;;;;;;19.16;62.52;101669.53;4963536;28;20505;-44
2023/05/09 02:37:39;;;;;;;18.20;10.10;;;;;;;19.13;62.79;101666.91;4963325;28;20043;-45
2023/05/09 02:40:08;;;;;;;16.23;10.50;;;;;;;19.12;62.90;101671.31;4966222;28;20082;-45
2023/05/09 02:42:33;;;;;;;16.95;10.13;;;;;;;19.18;62.83;101666.00;4966045;28;20054;-48
2023/05/09 02:44:59;;;;;;;16.67;10.13;;;;;;;19.18;62.61;101671.28;4962796;28;25110;-47
2023/05/09 02:47:25;;;;;;;17.73;10.50;;;;;;;19.40;62.35;101664.88;4965872;28;20412;-49
2023/05/09 02:49:50;;;;;;;14.05;9.27;;;;;;;19.36;61.99;101654.34;4962582;28;20045;-44
2023/05/09 02:52:15;;;;;;;17.73;10.73;;;;;;;19.32;62.44;101656.16;4966243;28;20386;-45
2023/05/09 02:54:41;;;;;;;18.70;10.40;;;;;;;19.48;62.09;101661.31;4962651;28;20410;-49
2023/05/09 02:57:06;;;;;;;17.52;10.40;;;;;;;19.35;62.79;101660.53;4966374;28;20034;-45
2023/05/09 02:59:32;;;;;;;17.33;10.07;;;;;;;19.44;62.68;101652.50;4966972;28;20041;-45
2023/05/09 03:01:57;;;;;;;18.27;10.43;;;;;;;19.43;62.71;101650.75;4964040;28;20062;-45
2023/05/09 03:04:24;;;;;;;17.52;10.30;;;;;;;19.41;63.00;101649.88;4967000;28;20125;-46
2023/05/09 03:06:49;;;;;;;17.45;10.00;;;;;;;19.42;63.12;101643.72;4962896;28;20038;-45
2023/05/09 03:09:15;;;;;;;19.67;10.00;;;;;;;19.39;63.21;101639.31;4966701;28;20026;-46
2023/05/09 03:11:40;;;;;;;17.40;9.82;;;;;;;19.39;63.10;101639.31;4962471;28;20034;-46
2023/05/09 03:14:07;;;;;;;16.92;10.23;;;;;;;19.39;62.82;101638.47;4966577;28;20030;-46
2023/05/09 03:16:33;;;;;;;18.02;10.27;;;;;;;19.34;63.57;101641.13;4995331;23;20101;-48
2023/05/09 03:18:58;;;;;;;16.45;9.60;;;;;;;19.39;63.21;101634.03;4981183;28;20030;-48
2023/05/09 03:21:24;;;;;;;17.98;9.57;;;;;;;19.39;63.56;101643.75;4984883;28;20110;-46
2023/05/09 03:23:49;;;;;;;16.83;9.85;;;;;;;19.29;63.56;101636.78;4980805;28;20038;-47
2023/05/09 03:26:14;;;;;;;16.42;9.77;;;;;;;19.13;63.75;101632.56;4983875;28;20109;-47
2023/05/09 03:28:39;;;;;;;15.38;9.30;;;;;;;19.04;64.34;101620.28;4981135;28;20040;-45
2023/05/09 03:31:05;;;;;;;17.75;10.10;;;;;;;18.98;64.32;101617.72;4985087;28;20034;-49
2023/05/09 03:33:30;;;;;;;16.02;9.20;;;;;;;19.01;64.60;101613.28;4984336;28;20405;-49
2023/05/09 03:35:56;;;;;;;15.05;9.32;;;;;;;19.07;64.54;101608.84;4981221;28;20043;-46
2023/05/09 03:38:24;;;;;;;15.20;9.85;;;;;;;19.01;64.72;101601.84;4984697;28;20078;-47
2023/05/09 03:40:50;;;;;;;16.25;9.55;;;;;;;19.02;64.94;101601.84;4981212;28;20648;-46
2023/05/09 03:43:15;;;;;;;16.33;9.70;;;;;;;19.09;64.66;101596.50;4984435;28;20110;-46
2023/05/09 03:45:41;;;;;;;16.58;9.18;;;;;;;19.32;63.81;101590.06;4980746;28;20305;-51
2023/05/09 03:48:08;;;;;;;16.35;9.68;;;;;;;19.37;63.65;101590.00;4984581;28;20030;-49
2023/05/09 03:50:34;;;;;;;17.33;9.88;;;;;;;19.30;63.46;101591.84;4983779;28;20030;-47
2023/05/09 03:52:59;;;;;;;14.90;9.65;;;;;;;19.38;63.45;101586.47;4980627;28;20061;-49
2023/05/09 03:55:25;;;;;;;15.90;9.82;;;;;;;19.11;64.06;101592.03;4983761;28;20169;-50
2023/05/09 03:57:50;;;;;;;14.25;9.88;;;;;;;19.03;64.78;101587.69;4980726;28;20509;-46
2023/05/09 04:00:16;;;;;;;15.65;10.18;;;;;;;19.26;63.84;101586.59;4983565;28;20157;-48
2023/05/09 04:02:42;;;;;;;15.38;9.52;;;;;;;19.35;63.70;101579.44;4980033;28;20026;-47
2023/05/09 04:05:07;;;;;;;15.20;9.70;;;;;;;19.44;63.33;101570.53;4984375;28;20034;-49
2023/05/09 04:07:33;;;;;;;16.58;9.57;;;;;;;19.30;63.95;101564.53;4983500;28;20031;-49
2023/05/09 04:09:58;;;;;;;15.45;10.02;;;;;;;19.27;63.95;101565.41;4980107;28;20030;-46
2023/05/09 04:12:24;;;;;;;15.65;9.98;;;;;;;19.25;63.94;101572.50;4983480;28;20026;-49
2023/05/09 04:14:51;;;;;;;16.88;10.05;;;;;;;19.21;64.27;101564.66;4979399;28;20622;-49
2023/05/09 04:17:16;;;;;;;18.73;10.00;;;;;;;19.25;64.08;101559.28;4982976;28;20500;-52
2023/05/09 04:19:42;;;;;;;15.70;9.80;;;;;;;19.01;64.89;101564.84;4980368;28;20041;-47
2023/05/09 04:22:07;;;;;;;18.05;10.02;;;;;;;18.96;64.81;101553.47;4984123;28;20497;-46
2023/05/09 04:24:32;;;;;;;17.55;10.23;;;;;;;19.08;64.73;101560.38;4983035;28;20038;-47
2023/05/09 04:26:58;;;;;;;15.30;9.63;;;;;;;19.36;63.84;101559.16;4979793;28;20618;-48
2023/05/09 04:29:23;;;;;;;14.43;9.57;;;;;;;19.40;63.61;101547.66;4981888;28;20062;-50
2023/05/09 04:31:49;;;;;;;18.05;9.95;;;;;;;19.41;63.79;101555.56;4979678;28;20410;-50
2023/05/09 04:34:14;;;;;;;21.83;9.65;;;;;;;19.46;63.68;101557.34;4982935;28;20065;-50
2023/05/09 04:36:39;;;;;;;15.88;9.75;;;;;;;19.44;63.94;101554.66;4979367;28;20042;-43
2023/05/09 04:39:05;;;;;;;17.02;10.48;;;;;;;19.33;64.04;101553.94;4983787;28;20030;-50
2023/05/09 04:41:31;;;;;;;18.38;10.40;;;;;;;19.33;63.97;101554.78;4983676;28;20089;-45
2023/05/09 04:43:56;;;;;;;19.13;10.48;;;;;;;19.27;64.38;101546.91;4980228;28;20173;-49
2023/05/09 04:46:21;;;;;;;18.45;10.95;;;;;;;19.08;65.35;101552.44;4985381;28;20093;-45
2023/05/09 04:48:47;;;;;;;18.75;10.00;;;;;;;19.12;65.23;101544.47;4989142;28;20065;-48
2023/05/09 04:51:12;;;;;;;17.17;10.13;;;;;;;19.25;65.02;101535.50;4992371;28;20129;-51
2023/05/09 04:53:37;;;;;;;18.58;9.73;;;;;;;19.08;65.90;101534.81;4987483;28;20253;-46
2023/05/09 04:56:03;;;;;;;16.90;9.70;;;;;;;19.23;65.41;101528.47;4983394;28;20038;-48
2023/05/09 04:58:28;;;;;;;17.13;9.80;;;;;;;19.23;65.43;101529.34;4982253;28;20034;-47
2023/05/09 05:00:53;;;;;;;15.15;9.02;;;;;;;19.23;65.74;101521.41;4979586;28;20062;-45
2023/05/09 05:03:19;;;;;;;18.02;10.07;;;;;;;19.29;64.94;101520.47;4983361;28;20053;-48
2023/05/09 05:05:44;;;;;;;16.05;10.20;;;;;;;19.16;66.38;101510.94;4979124;28;20039;-46
2023/05/09 05:08:09;;;;;;;17.38;10.02;;;;;;;19.16;66.17;101509.16;4983490;28;20026;-46
2023/05/09 05:10:35;;;;;;;15.88;10.35;;;;;;;19.23;66.13;101507.31;4981364;28;20041;-45
2023/05/09 05:13:00;;;;;;;16.63;10.25;;;;;;;19.25;66.20;101502.91;4980855;28;20031;-48
2023/05/09 05:15:25;;;;;;;17.13;10.13;;;;;;;19.10;66.63;101503.06;4982152;28;20444;-49
2023/05/09 05:17:51;;;;;;;17.95;10.35;;;;;;;19.12;66.56;101507.47;4979352;28;20046;-45
2023/05/09 05:20:16;;;;;;;16.27;10.00;;;;;;;19.14;66.56;101508.31;4982557;28;20366;-45
2023/05/09 05:22:42;;;;;;;18.20;9.95;;;;;;;19.23;66.36;101500.28;4978973;28;20096;-45
2023/05/09 05:25:07;;;;;;;15.48;9.63;;;;;;;19.26;66.22;101500.25;4982518;28;20484;-47
2023/05/09 05:27:33;;;;;;;15.38;9.52;;;;;;;19.20;66.59;101495.03;4982604;28;20449;-47
2023/05/09 05:29:58;;;;;;;16.40;9.57;;;;;;;19.19;66.66;101493.28;4979005;28;20269;-48
2023/05/09 05:32:23;;;;;;;15.27;9.15;;;;;;;19.16;66.86;101495.06;4982376;28;20073;-47
2023/05/09 05:34:49;;;;;;;16.10;9.32;;;;;;;18.89;67.75;101485.72;4978156;28;20088;-48
2023/05/09 05:37:14;;;;;;;14.45;8.88;;;;;;;19.13;66.88;101490.72;4982376;28;20062;-47
2023/05/09 05:39:39;;;;;;;14.20;8.48;;;;;;;19.08;67.29;101489.00;4979528;28;20088;-46
2023/05/09 05:42:05;;;;;;;17.92;8.85;;;;;;;19.16;67.17;101481.84;4982739;28;20042;-49
2023/05/09 05:44:30;;;;;;;15.63;8.77;;;;;;;19.15;67.08;101478.31;4982185;28;20389;-45
2023/05/09 05:46:55;;;;;;;15.38;8.77;;;;;;;19.12;67.28;101481.03;4979230;28;20031;-45
2023/05/09 05:49:21;;;;;;;12.85;8.23;;;;;;;19.19;66.75;101479.19;4981334;28;20515;-44
2023/05/09 05:51:46;;;;;;;17.00;8.70;;;;;;;19.04;67.82;101485.50;4978405;28;20045;-45
2023/05/09 05:54:11;;;;;;;13.60;8.30;;;;;;;19.07;68.01;101488.13;4981551;28;20129;-48
2023/05/09 05:56:37;;;;;;;14.05;8.48;;;;;;;18.99;67.94;101487.34;4979249;28;20027;-47
2023/05/09 05:59:02;;;;;;;16.38;8.73;;;;;;;19.12;67.75;101477.50;4982153;28;20038;-46
2023/05/09 06:01:27;;;;;;;13.25;8.27;;;;;;;18.95;68.07;101473.31;4981847;28;20386;-50
2023/05/09 06:03:56;;;;;;;14.40;8.57;;;;;;;19.01;68.02;101475.00;4978526;28;20047;-47
2023/05/09 06:06:21;;;;;;;14.27;7.93;;;;;;;19.11;67.47;101463.41;4981771;28;20054;-46
2023/05/09 06:08:50;;;;;;;14.38;7.85;;;;;;;19.11;67.75;101473.09;4978148;28;20124;-46
2023/05/09 06:11:16;;;;;;;13.57;7.93;;;;;;;19.01;68.26;101470.59;4984745;28;20117;-48
2023/05/09 06:13:42;;;;;;;13.98;8.52;;;;;;;18.80;68.49;101469.94;4982341;28;20331;-50
2023/05/09 06:16:08;;;;;;;13.38;8.27;;;;;;;19.03;68.07;101460.84;4985730;28;20034;-45
2023/05/09 06:18:38;;;;;;;14.82;8.15;;;;;;;18.73;69.36;101458.56;4984990;28;20038;-48
2023/05/09 06:21:04;;;;;;;13.15;8.00;;;;;;;18.87;68.74;101454.00;4982590;28;20022;-46
2023/05/09 06:23:30;;;;;;;14.43;8.00;;;;;;;18.82;68.97;101454.97;4985430;28;22210;-48
2023/05/09 06:25:55;;;;;;;12.57;7.55;;;;;;;18.89;68.92;101454.88;4982642;28;20456;-47
2023/05/09 06:28:20;;;;;;;11.63;7.53;;;;;;;18.99;68.76;101455.63;4985549;28;20030;-45
2023/05/09 06:30:46;;;;;;;10.80;7.00;;;;;;;18.89;68.83;101454.00;4981687;28;20440;-46
2023/05/09 06:33:11;;;;;;;12.93;7.07;;;;;;;18.99;68.51;101450.34;4985393;28;20038;-46
2023/05/09 06:35:36;;;;;;;11.93;6.75;;;;;;;18.56;69.23;101453.47;4982478;28;20030;-42
2023/05/09 06:38:02;;;;;;;10.18;6.70;;;;;;;18.61;68.84;101442.84;4985010;28;20038;-46
2023/05/09 06:40:27;;;;;;;9.50;6.10;;;;;;;18.72;68.64;101448.03;4984921;28;20026;-47
2023/05/09 06:42:52;;;;;;;11.90;6.25;;;;;;;18.82;68.41;101441.75;4981393;28;20118;-47
2023/05/09 06:45:17;;;;;;;10.05;6.18;;;;;;;18.67;68.91;101439.25;4985107;28;20027;-48
2023/05/09 06:47:43;;;;;;;10.35;6.13;;;;;;;18.68;68.66;101435.72;4981312;28;20439;-46
2023/05/09 06:50:08;;;;;;;10.98;6.20;;;;;;;18.60;68.77;101430.56;4985238;28;20113;-45
2023/05/09 06:52:34;;;;;;;10.48;5.80;;;;;;;18.58;68.92;101429.69;4985566;28;20037;-48
2023/05/09 06:54:59;;;;;;;9.25;5.90;;;;;;;18.63;68.94;101428.75;4981587;28;20736;-48
2023/05/09 06:57:24;;;;;;;10.30;6.13;;;;;;;18.53;68.82;101435.00;4985248;28;20066;-46
2023/05/09 06:59:49;;;;;;;8.70;5.88;;;;;;;18.53;68.83;101423.56;4980870;28;20038;-48
2023/05/09 07:02:15;;;;;;;11.88;5.78;;;;;;;18.58;68.75;101422.66;4984904;28;20092;-48
2023/05/09 07:04:40;;;;;;;11.57;5.68;;;;;;;18.72;68.33;101416.34;4981638;28;20030;-45
2023/05/09 07:07:06;;;;;;;9.55;5.32;;;;;;;18.68;68.55;101406.69;4985052;28;20049;-48
2023/05/09 07:09:31;;;;;;;10.27;5.18;;;;;;;18.69;68.45;101404.03;4984795;28;20046;-47
2023/05/09 07:11:59;;;;;;;8.88;5.07;;;;;;;18.36;69.12;101407.03;4981461;28;20033;-48
2023/05/09 07:14:24;;;;;;;8.90;4.95;;;;;;;18.68;68.37;101396.13;4985368;28;20065;-50
2023/05/09 07:16:49;;;;;;;7.55;4.68;;;;;;;18.78;67.88;101395.16;4981743;28;20085;-48
2023/05/09 07:19:15;;;;;;;7.60;4.70;;;;;;;18.67;68.10;101387.31;4985497;28;20030;-45
2023/05/09 07:21:40;;;;;;;6.43;4.28;;;;;;;18.73;68.20;101386.38;4981033;28;20032;-45
2023/05/09 07:24:06;;;;;;;8.10;4.60;;;;;;;18.47;69.05;101384.91;4985764;28;20034;-49
2023/05/09 07:26:31;;;;;;;6.47;4.28;;;;;;;18.37;69.54;101379.72;4984647;28;20030;-48
2023/05/09 07:28:56;;;;;;;6.88;4.30;;;;;;;18.39;69.44;101370.91;4981395;28;20035;-45
2023/05/09 07:31:22;;;;;;;8.80;4.28;;;;;;;18.50;69.10;101369.00;4985164;28;20027;-49
2023/05/09 07:33:47;;;;;;;6.70;4.20;;;;;;;18.58;69.20;101368.97;4982613;28;20042;-45
2023/05/09 07:36:15;;;;;;;6.53;4.38;;;;;;;18.56;69.63;101361.03;4986848;28;20147;-45
2023/05/09 07:38:40;;;;;;;5.97;4.38;;;;;;;18.66;69.34;101355.66;4983114;28;20061;-49
2023/05/09 07:41:05;;;;;;;6.38;3.92;;;;;;;18.75;69.43;101356.41;4986885;28;20030;-50
2023/05/09 07:43:31;;;;;;;6.03;4.35;;;;;;;18.71;69.56;101352.06;4985379;28;20027;-51
2023/05/09 07:45:56;;;;;;;6.85;4.20;;;;;;;18.80;69.07;101349.31;4981386;28;20394;-47
2023/05/09 07:48:21;;;;;;;8.57;4.07;;;;;;;18.72;69.01;101347.66;4984754;28;20499;-52
2023/05/09 07:50:47;;;;;;;7.32;4.60;;;;;;;18.87;68.59;101348.34;4980486;28;20133;-50
2023/05/09 07:53:12;;;;;;;6.00;3.80;;;;;;;18.82;68.74;101347.53;4984039;28;20117;-46
2023/05/09 07:55:37;;;;;;;6.68;4.55;;;;;;;18.87;69.00;101331.59;4980634;28;20129;-49
2023/05/09 07:58:03;;;;;;;7.38;4.30;;;;;;;18.83;69.34;101335.19;4983388;28;20034;-47
2023/05/09 08:00:28;;;;;;;8.00;4.97;;;;;;;18.64;69.55;101332.78;4983549;28;20030;-50
2023/05/09 08:02:53;;;;;;;6.80;4.95;;;;;;;18.67;69.94;101323.06;4979777;28;20117;-46
2023/05/09 08:05:19;;;;;;;7.35;4.80;;;;;;;18.80;70.22;101328.16;4983709;28;20493;-48
2023/05/09 08:07:45;;;;;;;9.00;4.97;;;;;;;19.00;69.40;101317.34;4980399;28;20085;-48
2023/05/09 08:10:10;;;;;;;8.00;5.60;;;;;;;18.85;70.24;101318.41;4983822;28;20038;-50
2023/05/09 08:12:36;;;;;;;10.02;5.45;;;;;;;18.99;70.22;101318.22;4980739;28;20035;-46
2023/05/09 08:15:01;;;;;;;9.45;5.70;;;;;;;18.85;70.57;101312.25;4983345;28;20049;-47
2023/05/09 08:17:27;;;;;;;8.82;6.05;;;;;;;18.83;71.03;101306.13;4983135;28;20034;-50
2023/05/09 08:19:52;;;;;;;8.98;6.05;;;;;;;19.20;69.71;101301.19;4979685;28;20046;-48
2023/05/09 08:22:18;;;;;;;9.23;6.18;;;;;;;19.26;69.27;101295.81;4983190;28;20182;-45
2023/05/09 08:24:45;;;;;;;9.32;6.05;;;;;;;19.18;69.28;101300.34;4980081;28;20138;-48
2023/05/09 08:27:14;;;;;;;10.85;6.00;;;;;;;19.25;69.38;101294.94;4983450;28;20033;-47
2023/05/09 08:29:39;;;;;;;9.80;5.75;;;;;;;19.24;69.39;101298.47;4980033;28;20038;-46
2023/05/09 08:32:05;;;;;;;9.48;6.28;;;;;;;19.62;68.31;101291.72;4982814;28;20628;-46
2023/05/09 08:34:33;;;;;;;9.40;5.95;;;;;;;19.57;68.16;101289.16;4982658;28;20100;-49
2023/05/09 08:36:59;;;;;;;8.73;6.30;;;;;;;19.46;67.74;101287.59;4979461;28;20034;-45
2023/05/09 08:39:24;;;;;;;8.85;5.82;;;;;;;19.49;68.23;101287.53;4982836;28;20030;-48
2023/05/09 08:41:56;;;;;;;9.07;6.63;;;;;;;19.40;68.47;101284.09;4979163;28;20081;-48
2023/05/09 08:44:22;;;;;;;11.18;6.68;;;;;;;19.16;68.94;101283.63;4982866;28;20041;-48
2023/05/09 08:46:50;;;;;;;8.00;5.95;;;;;;;19.26;68.75;101274.66;4978896;28;20035;-49
2023/05/09 08:49:16;;;;;;;9.18;6.03;;;;;;;19.46;68.58;101272.59;4982901;28;20038;-46
2023/05/09 08:51:42;;;;;;;8.20;5.82;;;;;;;19.48;68.56;101270.78;4979385;28;20034;-48
2023/05/09 08:54:09;;;;;;;7.50;5.88;;;;;;;19.44;68.36;101275.25;4983055;28;20057;-46
2023/05/09 08:56:35;;;;;;;9.52;5.88;;;;;;;19.49;68.14;101267.25;4982755;28;20042;-49
2023/05/09 08:59:00;;;;;;;9.85;6.05;;;;;;;19.40;68.49;101267.34;4979558;28;20396;-45
2023/05/09 09:01:26;;;;;;;8.43;6.03;;;;;;;19.39;68.63;101270.94;4982521;28;20026;-44
2023/05/09 09:03:52;;;;;;;8.70;5.80;;;;;;;19.40;68.64;101262.94;4978983;28;20039;-45
2023/05/09 09:06:20;;;;;;;8.55;6.10;;;;;;;19.40;68.85;101260.31;4982749;28;20160;-45
2023/05/09 09:08:47;;;;;;;9.60;6.10;;;;;;;19.49;68.75;101264.63;4979334;28;20064;-46
2023/05/09 09:11:13;;;;;;;8.18;5.97;;;;;;;19.53;68.75;101261.00;4981963;28;20084;-45
2023/05/09 09:13:40;;;;;;;8.52;6.30;;;;;;;19.30;69.02;101261.38;4979274;28;20165;-49
2023/05/09 09:16:10;;;;;;;8.95;6.57;;;;;;;19.29;69.17;101258.75;4981519;28;20030;-49
2023/05/09 09:18:35;;;;;;;12.35;6.65;;;;;;;19.31;69.39;101252.53;4981623;28;20034;-47
2023/05/09 09:21:08;;;;;;;10.30;6.80;;;;;;;19.22;69.33;101252.69;4980271;28;20045;-48
2023/05/09 09:23:35;;;;;;;9.65;6.40;;;;;;;19.44;68.83;101255.84;4982581;28;20554;-44
2023/05/09 09:26:03;;;;;;;11.57;6.65;;;;;;;19.37;68.84;101254.22;4979041;28;22759;-45
2023/05/09 09:28:29;;;;;;;8.70;6.47;;;;;;;19.33;69.07;101250.72;4982367;28;20034;-48
2023/05/09 09:30:55;;;;;;;9.55;6.60;;;;;;;19.36;69.17;101247.16;4978947;28;20041;-48
2023/05/09 09:33:22;;;;;;;8.57;6.70;;;;;;;19.51;68.91;101254.00;4982360;28;20045;-50
2023/05/09 09:35:48;;;;;;;8.80;6.10;;;;;;;19.72;68.28;101238.63;4978740;28;20556;-44
2023/05/09 09:38:18;;;;;;;8.80;6.53;;;;;;;19.69;68.27;101243.97;4982654;28;20500;-46
2023/05/09 09:40:54;;;;;;;9.05;6.20;;;;;;;19.78;68.14;101241.16;4979114;28;20046;-51
2023/05/09 09:43:20;;;;;;;8.65;6.60;;;;;;;19.66;68.78;101238.75;4982681;28;20053;-46
2023/05/09 09:45:50;;;;;;;7.85;6.30;;;;;;;19.66;68.85;101233.44;4978530;28;20500;-45
2023/05/09 09:48:15;;;;;;;8.70;6.15;;;;;;;19.76;68.00;101237.66;4982297;28;20042;-48
2023/05/09 09:50:40;;;;;;;8.88;6.13;;;;;;;19.95;68.05;101235.53;4979085;28;20030;-50
2023/05/09 09:53:06;;;;;;;9.65;6.68;;;;;;;19.92;67.94;101240.91;4981692;28;20085;-48
2023/05/09 09:55:33;;;;;;;9.23;6.05;;;;;;;19.88;68.14;101238.34;4982035;28;20053;-45
2023/05/09 09:57:59;;;;;;;7.60;5.72;;;;;;;20.00;68.00;101236.34;4978798;28;20034;-49
2023/05/09 10:00:26;;;;;;;7.78;6.18;;;;;;;19.81;68.47;101232.31;4981346;28;20034;-45
2023/05/09 10:02:59;;;;;;;7.60;6.38;;;;;;;19.87;68.32;101226.00;4978475;28;20076;-45
2023/05/09 10:05:27;;;;;;;8.63;6.20;;;;;;;19.83;68.08;101220.78;4981789;28;20039;-47
2023/05/09 10:07:54;;;;;;;8.18;6.20;;;;;;;20.08;68.05;101226.47;4978446;28;20034;-48
2023/05/09 10:10:20;;;;;;;7.85;5.93;;;;;;;20.04;68.01;101224.78;4981421;28;20125;-48
2023/05/09 10:12:46;;;;;;;8.05;6.20;;;;;;;19.81;68.73;101227.00;4978475;28;20189;-48
2023/05/09 10:15:15;;;;;;;8.75;6.43;;;;;;;19.96;68.39;101216.13;4981196;28;20505;-43
2023/05/09 10:17:40;;;;;;;8.00;6.30;;;;;;;20.00;67.81;101214.28;4978456;28;20112;-48
2023/05/09 10:20:07;;;;;;;7.50;6.15;;;;;;;20.20;67.66;101214.75;4981612;28;20473;-49
2023/05/09 10:22:34;;;;;;;7.97;6.40;;;;;;;20.24;68.14;101214.66;4981268;28;20165;-50
2023/05/09 10:25:20;;;;;;;8.05;6.32;;;;;;;20.32;67.79;101211.88;4978051;28;20571;-46
2023/05/09 10:27:46;;;;;;;7.00;5.80;;;;;;;20.43;67.19;101209.00;4977945;28;20030;-50
2023/05/09 10:30:18;;;;;;;7.13;6.13;;;;;;;20.20;67.77;101204.16;4982242;28;20031;-45
2023/05/09 10:33:01;;;;;;;8.23;6.43;;;;;;;20.01;68.28;101200.13;4979829;28;20034;-48
2023/05/09 10:35:31;;;;;;;7.32;6.40;;;;;;;20.10;67.92;101202.59;4983525;28;20041;-47
2023/05/09 10:37:56;;;;;;;7.93;5.95;;;;;;;20.23;68.00;101201.47;4978913;28;20034;-50
2023/05/09 10:40:22;;;;;;;7.30;6.03;;;;;;;19.95;68.29;101194.97;4982611;28;20034;-48
2023/05/09 10:42:48;;;;;;;8.20;5.93;;;;;;;20.12;67.58;101192.88;4979214;28;20038;-51
2023/05/09 10:45:13;;;;;;;8.05;6.05;;;;;;;19.87;68.60;101189.84;4982387;28;20038;-47
2023/05/09 10:47:40;;;;;;;7.75;6.07;;;;;;;20.05;68.15;101189.47;4978760;28;20086;-46
2023/05/09 10:50:11;;;;;;;7.07;5.65;;;;;;;20.08;67.70;101180.59;4981267;28;20039;-47
2023/05/09 10:53:03;;;;;;;9.77;5.32;;;;;;;19.88;68.67;101180.13;4978357;28;20035;-46
2023/05/09 10:55:46;;;;;;;6.88;5.10;;;;;;;19.98;68.39;101177.28;4976248;28;20042;-47
2023/05/09 10:58:24;;;;;;;6.60;5.50;;;;;;;19.98;68.61;101179.03;4982934;28;20053;-44
2023/05/09 11:00:50;;;;;;;7.00;5.18;;;;;;;20.12;68.46;101171.69;4981059;28;20129;-46
2023/05/09 11:03:19;;;;;;;6.13;5.10;;;;;;;20.08;68.20;101170.00;4984763;28;20026;-48
2023/05/09 11:05:46;;;;;;;7.15;5.68;;;;;;;20.20;68.15;101162.66;4980939;28;20567;-46
2023/05/09 11:08:29;;;;;;;7.40;5.50;;;;;;;20.35;68.35;101168.56;4984374;28;20499;-44
2023/05/09 11:11:05;;;;;;;6.28;5.50;;;;;;;20.20;68.34;101162.66;4980865;28;20408;-50
2023/05/09 11:13:32;;;;;;;6.93;5.70;;;;;;;20.32;68.00;101161.56;4984412;28;20421;-46
2023/05/09 11:16:00;;;;;;;7.13;5.50;;;;;;;20.18;68.19;101161.84;4980756;28;20034;-47